createdAt,value
2017-06-04T00:07:15.000Z,41.344
2017-06-04T00:17:15.000Z,41.354
2017-06-04T00:27:15.000Z,41.427
2017-06-04T00:37:15.000Z,41.415
2017-06-04T00:47:15.000Z,41.553
2017-06-04T00:57:15.000Z,41.583
2017-06-04T01:07:15.000Z,41.592
2017-06-04T01:17:15.000Z,41.601
2017-06-04T01:27:15.000Z,41.685
2017-06-04T01:37:15.000Z,41.757
2017-06-04T01:57:15.000Z,41.775
2017-06-04T02:07:19.000Z,41.871
2017-06-04T02:17:15.000Z,41.943
2017-06-04T02:27:15.000Z,42.004
2017-06-04T02:37:16.000Z,42.023
2017-06-04T02:47:15.000Z,41.976
2017-06-04T02:57:16.000Z,41.972
2017-06-04T03:07:15.000Z,41.993
2017-06-04T03:17:16.000Z,41.934
2017-06-04T03:27:15.000Z,41.886
2017-06-04T03:37:15.000Z,41.831
2017-06-04T03:47:15.000Z,41.762
2017-06-04T03:57:17.000Z,41.826
2017-06-04T04:07:15.000Z,41.597
2017-06-04T04:17:19.000Z,41.779
2017-06-04T04:27:16.000Z,41.863
2017-06-04T04:37:16.000Z,41.905
2017-06-04T04:47:16.000Z,41.912
2017-06-04T04:57:17.000Z,41.977
2017-06-04T05:07:16.000Z,41.942
2017-06-04T05:17:16.000Z,41.844
2017-06-04T05:27:16.000Z,41.594
2017-06-04T05:37:16.000Z,41.797
2017-06-04T05:47:16.000Z,41.754
2017-06-04T05:57:16.000Z,41.821
2017-06-04T06:07:19.000Z,41.745
2017-06-04T06:17:16.000Z,42.207
2017-06-04T06:27:16.000Z,42.242
2017-06-04T06:37:16.000Z,42.167
2017-06-04T06:47:16.000Z,41.816
2017-06-04T06:57:16.000Z,41.488
2017-06-04T07:07:16.000Z,41.291
2017-06-04T07:17:16.000Z,41.214
2017-06-04T07:27:16.000Z,41.064
2017-06-04T07:37:16.000Z,40.639
2017-06-04T07:47:16.000Z,40.203
2017-06-04T07:57:16.000Z,39.823
2017-06-04T08:07:16.000Z,39.67
2017-06-04T08:17:16.000Z,39.193
2017-06-04T08:27:18.000Z,38.995
2017-06-04T08:37:16.000Z,38.53
2017-06-04T08:47:18.000Z,38.284
2017-06-04T08:57:16.000Z,38.112
2017-06-04T09:07:18.000Z,37.886
2017-06-04T09:17:17.000Z,38.309
2017-06-04T09:27:16.000Z,37.67
2017-06-04T09:37:16.000Z,37.584
2017-06-04T09:47:16.000Z,37.175
2017-06-04T09:57:16.000Z,38.012
2017-06-04T10:07:17.000Z,37.599
2017-06-04T10:17:16.000Z,37.222
2017-06-04T10:27:17.000Z,37.417
2017-06-04T10:37:17.000Z,36.802
2017-06-04T10:47:16.000Z,36.836
2017-06-04T10:57:17.000Z,36.611
2017-06-04T11:07:16.000Z,37.036
2017-06-04T11:17:17.000Z,37.091
2017-06-04T11:27:17.000Z,37.276
2017-06-04T11:37:17.000Z,37.481
2017-06-04T11:47:16.000Z,37.544
2017-06-04T11:57:17.000Z,37.696
2017-06-04T12:07:17.000Z,37.706
2017-06-04T12:17:17.000Z,37.344
2017-06-04T12:27:17.000Z,36.368
2017-06-04T12:37:18.000Z,37.095
2017-06-04T12:47:19.000Z,37.136
2017-06-04T12:57:17.000Z,36.996
2017-06-04T13:07:17.000Z,36.908
2017-06-04T13:17:18.000Z,37.082
2017-06-04T13:27:18.000Z,37.287
2017-06-04T13:37:19.000Z,37.145
2017-06-04T13:47:17.000Z,36.881
2017-06-04T13:57:17.000Z,36.32
2017-06-04T14:07:19.000Z,36.053
2017-06-04T14:17:17.000Z,36.087
2017-06-04T14:27:17.000Z,36.564
2017-06-04T14:37:18.000Z,36.564
2017-06-04T14:47:18.000Z,36.619
2017-06-04T14:57:17.000Z,36.206
2017-06-04T15:07:20.000Z,36.606
2017-06-04T15:17:20.000Z,36.583
2017-06-04T15:27:17.000Z,37.006
2017-06-04T15:37:17.000Z,37.146
2017-06-04T15:47:18.000Z,37.045
2017-06-04T15:57:17.000Z,36.957
2017-06-04T16:07:20.000Z,36.696
2017-06-04T16:17:17.000Z,36.541
2017-06-04T16:27:17.000Z,36.538
2017-06-04T16:37:17.000Z,36.434
2017-06-04T16:47:17.000Z,36.541
2017-06-04T16:57:17.000Z,36.488
2017-06-04T17:07:18.000Z,36.564
2017-06-04T17:17:17.000Z,36.541
2017-06-04T17:27:17.000Z,36.595
2017-06-04T17:37:17.000Z,36.627
2017-06-04T17:47:18.000Z,36.737
2017-06-04T17:57:17.000Z,36.78
2017-06-04T18:07:18.000Z,36.854
2017-06-04T18:17:17.000Z,37.027
2017-06-04T18:27:18.000Z,37.178
2017-06-04T18:37:17.000Z,37.243
2017-06-04T18:47:18.000Z,37.405
2017-06-04T18:57:17.000Z,37.587
2017-06-04T19:07:18.000Z,37.75
2017-06-04T19:17:17.000Z,37.857
2017-06-04T19:27:17.000Z,37.856
2017-06-04T19:37:18.000Z,37.995
2017-06-04T19:47:18.000Z,38.102
2017-06-04T19:57:18.000Z,38.175
2017-06-04T20:07:18.000Z,38.107
2017-06-04T20:17:18.000Z,37.607
2017-06-04T20:27:18.000Z,37.454
2017-06-04T20:37:18.000Z,37.396
2017-06-04T20:47:18.000Z,37.35
2017-06-04T20:57:18.000Z,37.347
2017-06-04T21:07:18.000Z,37.3
2017-06-04T21:17:18.000Z,37.397
2017-06-04T21:27:18.000Z,37.426
2017-06-04T21:37:18.000Z,37.368
2017-06-04T21:47:18.000Z,37.409
2017-06-04T21:57:18.000Z,37.416
2017-06-04T22:07:18.000Z,37.414
2017-06-04T22:17:18.000Z,37.41
2017-06-04T22:27:18.000Z,37.407
2017-06-04T22:37:18.000Z,37.381
2017-06-04T22:47:18.000Z,37.389
2017-06-04T22:57:18.000Z,37.332
2017-06-04T23:07:18.000Z,37.338
2017-06-04T23:17:23.000Z,37.347
2017-06-04T23:27:18.000Z,37.536
2017-06-04T23:37:18.000Z,37.954
2017-06-04T23:47:18.000Z,38.124
2017-06-04T23:57:18.000Z,38.218
